createdAt,value
2023-04-02T00:17:27.749Z,11.02
2023-04-02T00:23:46.222Z,12.73
2023-04-02T00:41:54.825Z,12.38
2023-04-02T00:48:36.728Z,11.82
2023-04-02T01:06:53.535Z,12.70
2023-04-02T01:13:51.908Z,11.20
2023-04-02T01:32:29.396Z,11.73
2023-04-02T01:39:12.387Z,9.93
2023-04-02T01:57:28.222Z,9.75
2023-04-02T02:03:45.134Z,12.45
2023-04-02T02:19:01.927Z,11.07
2023-04-02T02:25:26.317Z,10.65
2023-04-02T02:41:27.273Z,12.40
2023-04-02T02:59:40.934Z,11.15
2023-04-02T03:06:02.782Z,12.35
2023-04-02T03:25:04.740Z,8.90
2023-04-02T03:28:37.512Z,11.10
2023-04-02T03:31:10.912Z,11.64
2023-04-02T03:37:22.468Z,9.90
2023-04-02T03:40:29.126Z,7.78
2023-04-02T03:57:55.302Z,10.60
2023-04-02T04:09:36.372Z,7.63
2023-04-02T04:27:47.377Z,7.97
2023-04-02T04:34:13.008Z,11.20
2023-04-02T05:02:25.619Z,7.95
2023-04-02T05:20:09.999Z,8.20
2023-04-02T05:44:19.575Z,13.35
2023-04-02T05:50:40.493Z,15.60
2023-04-02T06:14:46.573Z,14.95
2023-04-02T06:19:26.191Z,16.98
2023-04-02T06:36:49.368Z,9.70
2023-04-02T06:43:26.393Z,12.38
2023-04-02T06:53:12.451Z,10.45
2023-04-02T06:58:34.961Z,13.30
2023-04-02T07:16:41.017Z,9.93
2023-04-02T07:22:59.388Z,13.43
2023-04-02T07:35:03.525Z,9.50
2023-04-02T07:41:10.336Z,11.00
2023-04-02T07:52:49.759Z,10.60
2023-04-02T07:59:07.925Z,9.90
2023-04-02T08:04:44.182Z,14.70
2023-04-02T08:20:37.748Z,8.90
2023-04-02T08:26:56.571Z,9.25
2023-04-02T08:45:25.292Z,8.80
2023-04-02T08:49:14.589Z,10.27
2023-04-02T08:56:38.525Z,9.13
2023-04-02T09:00:29.981Z,8.00
2023-04-02T09:03:45.742Z,10.35
2023-04-02T09:06:44.112Z,9.80
2023-04-02T09:17:21.198Z,8.30
2023-04-02T09:19:52.097Z,10.35
2023-04-02T09:25:51.047Z,9.18
2023-04-02T09:28:26.585Z,9.92
2023-04-02T09:30:56.355Z,10.68
2023-04-02T09:33:44.156Z,10.80
2023-04-02T09:36:33.616Z,9.63
2023-04-02T09:39:20.818Z,9.83
2023-04-02T09:56:19.436Z,8.47
2023-04-02T09:58:46.906Z,8.30
2023-04-02T10:01:26.728Z,8.97
2023-04-02T10:03:53.671Z,10.00
2023-04-02T10:06:20.605Z,11.20
2023-04-02T10:08:47.472Z,9.23
2023-04-02T10:11:43.837Z,8.80
2023-04-02T10:14:21.139Z,8.27
2023-04-02T10:16:57.142Z,8.63
2023-04-02T10:19:44.149Z,9.07
2023-04-02T10:22:19.627Z,8.55
2023-04-02T10:24:46.500Z,7.37
2023-04-02T10:27:34.370Z,8.23
2023-04-02T10:30:12.780Z,9.37
2023-04-02T10:32:50.604Z,9.20
2023-04-02T10:35:23.392Z,8.77
2023-04-02T10:38:05.037Z,7.87
2023-04-02T10:40:46.535Z,6.77
2023-04-02T10:43:32.127Z,7.00
2023-04-02T10:45:59.015Z,5.83
2023-04-02T10:48:32.792Z,6.60
2023-04-02T10:51:01.135Z,7.10
2023-04-02T10:54:06.318Z,6.47
2023-04-02T10:56:50.693Z,7.10
2023-04-02T10:59:18.673Z,6.57
2023-04-02T11:01:46.773Z,6.07
2023-04-02T11:04:42.376Z,6.17
2023-04-02T11:07:24.990Z,5.60
2023-04-02T11:09:53.625Z,4.70
2023-04-02T11:12:41.526Z,4.69
2023-04-02T11:15:18.740Z,4.25
2023-04-02T11:17:46.081Z,4.65
2023-04-02T11:20:50.083Z,4.17
2023-04-02T11:26:53.705Z,4.40
2023-04-02T11:29:31.907Z,3.93
2023-04-02T11:32:20.780Z,4.47
2023-04-02T11:34:56.299Z,5.53
2023-04-02T11:37:33.333Z,5.67
2023-04-02T11:40:58.530Z,3.95
2023-04-02T11:43:41.533Z,4.57
2023-04-02T12:16:42.970Z,6.57
2023-04-02T12:23:00.953Z,6.97
2023-04-02T12:44:31.362Z,8.53
2023-04-02T12:46:58.432Z,9.37
2023-04-02T12:49:37.179Z,9.20
2023-04-02T12:52:06.101Z,8.80
2023-04-02T12:57:27.056Z,8.84
2023-04-02T13:01:16.356Z,8.38
2023-04-02T13:04:12.448Z,8.64
2023-04-02T13:06:41.271Z,8.07
2023-04-02T13:09:27.411Z,8.43
2023-04-02T13:11:55.401Z,8.67
2023-04-02T13:14:22.208Z,7.97
2023-04-02T13:16:49.165Z,8.40
2023-04-02T13:19:29.176Z,7.33
2023-04-02T13:21:56.472Z,7.53
2023-04-02T13:24:33.189Z,7.60
2023-04-02T13:27:01.330Z,7.23
2023-04-02T13:29:29.260Z,6.57
2023-04-02T13:31:59.218Z,6.90
2023-04-02T13:34:26.497Z,5.90
2023-04-02T13:36:53.625Z,6.10
2023-04-02T13:39:20.706Z,6.93
2023-04-02T13:41:53.100Z,6.50
2023-04-02T13:44:29.465Z,6.13
2023-04-02T13:46:57.484Z,6.57
2023-04-02T13:49:25.165Z,6.07
2023-04-02T13:51:54.594Z,6.10
2023-04-02T13:54:35.080Z,6.57
2023-04-02T13:57:03.673Z,6.33
2023-04-02T13:59:32.788Z,6.10
2023-04-02T14:02:05.752Z,6.30
2023-04-02T14:04:35.542Z,5.40
2023-04-02T14:07:23.238Z,4.90
2023-04-02T14:09:56.121Z,5.80
2023-04-02T14:12:45.833Z,5.07
2023-04-02T14:15:19.943Z,5.30
2023-04-02T14:18:04.741Z,5.70
2023-04-02T14:20:49.713Z,5.37
2023-04-02T14:23:40.521Z,5.63
2023-04-02T14:26:17.122Z,5.20
2023-04-02T14:29:01.608Z,5.67
2023-04-02T14:31:39.014Z,5.60
2023-04-02T14:34:33.946Z,5.40
2023-04-02T14:37:19.107Z,6.40
2023-04-02T14:39:56.465Z,4.70
2023-04-02T14:42:29.569Z,4.80
2023-04-02T14:45:12.668Z,3.90
2023-04-02T14:47:47.531Z,3.80
2023-04-02T14:50:18.855Z,4.90
2023-04-02T14:52:47.471Z,5.50
2023-04-02T14:55:44.362Z,5.20
2023-04-02T14:58:19.714Z,5.30
2023-04-02T15:00:55.267Z,3.90
2023-04-02T15:03:24.353Z,4.50
2023-04-02T15:05:59.166Z,4.83
2023-04-02T15:09:09.027Z,4.40
2023-04-02T15:11:38.315Z,4.63
2023-04-02T15:14:15.124Z,4.63
2023-04-02T15:16:43.516Z,3.08
2023-04-02T15:19:15.366Z,2.63
2023-04-02T15:22:19.529Z,3.43
2023-04-02T15:25:24.009Z,4.67
2023-04-02T15:28:06.643Z,4.13
2023-04-02T15:30:43.285Z,4.80
2023-04-02T15:33:32.037Z,3.87
2023-04-02T15:35:58.886Z,3.50
2023-04-02T15:38:34.966Z,3.90
2023-04-02T15:41:09.611Z,2.97
2023-04-02T15:44:09.892Z,4.23
2023-04-02T15:47:12.483Z,3.47
2023-04-02T15:49:44.086Z,3.20
2023-04-02T15:52:36.448Z,2.70
2023-04-02T15:55:24.753Z,3.07
2023-04-02T15:57:54.776Z,2.97
2023-04-02T16:00:32.989Z,3.50
2023-04-02T16:03:25.296Z,3.70
2023-04-02T16:06:01.022Z,3.47
2023-04-02T16:08:40.651Z,3.33
2023-04-02T16:11:11.749Z,3.57
2023-04-02T16:13:47.215Z,3.20
2023-04-02T16:16:33.014Z,2.77
2023-04-02T16:19:03.688Z,2.73
2023-04-02T16:21:54.367Z,2.90
2023-04-02T16:24:29.836Z,3.00
2023-04-02T16:27:04.888Z,3.93
2023-04-02T16:29:54.969Z,2.90
2023-04-02T16:32:41.211Z,3.28
2023-04-02T16:38:38.560Z,2.20
2023-04-02T16:41:09.687Z,2.93
2023-04-02T16:43:54.856Z,3.27
2023-04-02T16:46:39.823Z,3.25
2023-04-02T16:49:13.965Z,3.03
2023-04-02T16:51:40.779Z,3.10
2023-04-02T16:54:08.540Z,3.17
2023-04-02T16:57:14.884Z,3.00
2023-04-02T16:59:49.497Z,3.37
2023-04-02T17:02:57.313Z,3.67
2023-04-02T17:05:41.766Z,3.50
2023-04-02T17:08:24.522Z,2.87
2023-04-02T17:11:01.377Z,3.97
2023-04-02T17:13:46.017Z,3.93
2023-04-02T17:16:24.813Z,2.63
2023-04-02T17:18:53.424Z,3.43
2023-04-02T17:21:27.280Z,3.40
2023-04-02T17:24:23.067Z,2.63
2023-04-02T17:26:53.608Z,3.10
2023-04-02T17:29:33.464Z,3.57
2023-04-02T17:32:01.951Z,3.17
2023-04-02T17:34:28.831Z,3.00
2023-04-02T17:37:15.980Z,4.00
2023-04-02T17:40:04.767Z,2.70
2023-04-02T17:42:56.737Z,2.90
2023-04-02T17:45:46.948Z,3.00
2023-04-02T17:48:40.505Z,2.87
2023-04-02T17:51:18.017Z,2.90
2023-04-02T17:53:56.554Z,3.03
2023-04-02T17:56:57.265Z,2.83
2023-04-02T17:59:45.480Z,3.37
2023-04-02T18:02:30.930Z,2.90
2023-04-02T18:05:03.706Z,3.20
2023-04-02T18:07:59.075Z,2.50
2023-04-02T18:10:42.613Z,3.07
2023-04-02T18:13:20.340Z,2.87
2023-04-02T18:16:11.297Z,2.83
2023-04-02T18:18:55.945Z,2.60
2023-04-02T18:21:24.787Z,2.63
2023-04-02T18:24:30.121Z,3.03
2023-04-02T18:27:24.295Z,3.07
2023-04-02T18:29:57.307Z,3.23
2023-04-02T18:32:47.068Z,2.93
2023-04-02T18:35:20.726Z,5.63
2023-04-02T18:37:58.158Z,3.77
2023-04-02T18:40:43.782Z,2.50
2023-04-02T18:43:31.743Z,2.80
2023-04-02T18:46:25.096Z,3.00
2023-04-02T18:49:02.660Z,4.30
2023-04-02T18:51:32.393Z,4.53
2023-04-02T18:54:15.024Z,3.40
2023-04-02T18:56:41.862Z,4.67
2023-04-02T18:59:34.291Z,4.10
2023-04-02T19:02:24.796Z,3.40
2023-04-02T19:05:37.362Z,3.47
2023-04-02T19:08:06.569Z,3.13
2023-04-02T19:10:41.826Z,3.77
2023-04-02T19:13:16.039Z,3.27
2023-04-02T19:16:31.717Z,3.00
2023-04-02T19:19:16.991Z,3.10
2023-04-02T19:22:16.766Z,3.60
2023-04-02T19:25:10.903Z,3.80
2023-04-02T19:27:48.973Z,3.37
2023-04-02T19:30:34.712Z,3.10
2023-04-02T19:33:27.591Z,3.43
2023-04-02T19:35:58.788Z,3.57
2023-04-02T19:39:05.978Z,3.33
2023-04-02T19:42:07.933Z,3.80
2023-04-02T19:44:34.829Z,2.97
2023-04-02T19:47:01.760Z,2.53
2023-04-02T19:49:36.431Z,2.73
2023-04-02T19:52:04.421Z,3.23
2023-04-02T19:54:31.275Z,3.47
2023-04-02T19:56:58.199Z,4.47
2023-04-02T19:59:25.130Z,3.00
2023-04-02T20:01:51.951Z,3.90
2023-04-02T20:04:19.931Z,2.97
2023-04-02T20:06:47.772Z,3.50
2023-04-02T20:09:14.676Z,3.17
2023-04-02T20:11:41.630Z,3.67
2023-04-02T20:14:08.480Z,3.67
2023-04-02T20:16:36.971Z,3.83
2023-04-02T20:19:03.861Z,3.70
2023-04-02T20:21:37.977Z,3.60
2023-04-02T20:24:08.883Z,3.70
2023-04-02T20:26:36.358Z,4.13
2023-04-02T20:29:03.252Z,3.53
2023-04-02T20:31:31.717Z,3.73
2023-04-02T20:33:59.176Z,3.33
2023-04-02T20:36:28.299Z,3.23
2023-04-02T20:38:55.870Z,3.20
2023-04-02T20:41:23.212Z,3.23
2023-04-02T20:43:50.506Z,3.10
2023-04-02T20:46:17.422Z,3.17
2023-04-02T20:48:44.873Z,2.90
2023-04-02T20:51:13.089Z,3.17
2023-04-02T20:53:39.880Z,3.50
2023-04-02T20:56:13.829Z,3.27
2023-04-02T20:58:41.065Z,3.17
2023-04-02T21:01:20.958Z,3.40
2023-04-02T21:03:48.180Z,3.87
2023-04-02T21:06:16.298Z,3.43
2023-04-02T21:08:43.397Z,2.90
2023-04-02T21:11:10.249Z,3.47
2023-04-02T21:13:38.372Z,3.37
2023-04-02T21:16:05.952Z,3.03
2023-04-02T21:18:32.790Z,3.60
2023-04-02T21:21:01.695Z,3.43
2023-04-02T21:23:29.087Z,4.07
2023-04-02T21:26:07.331Z,3.57
2023-04-02T21:28:34.513Z,4.07
2023-04-02T21:31:12.709Z,3.70
2023-04-02T21:33:50.399Z,3.87
2023-04-02T21:36:19.034Z,3.67
2023-04-02T21:38:47.334Z,3.93
2023-04-02T21:41:21.408Z,3.20
2023-04-02T21:43:48.548Z,4.70
2023-04-02T21:46:19.386Z,3.77
2023-04-02T21:48:46.436Z,4.10
2023-04-02T21:51:24.070Z,4.30
2023-04-02T21:53:51.076Z,3.80
2023-04-02T21:56:19.176Z,3.90
2023-04-02T21:58:46.226Z,4.30
2023-04-02T22:01:23.949Z,4.07
2023-04-02T22:03:54.704Z,3.43
2023-04-02T22:06:21.883Z,4.30
2023-04-02T22:08:54.706Z,3.53
2023-04-02T22:11:23.676Z,3.90
2023-04-02T22:13:50.808Z,4.20
2023-04-02T22:16:22.374Z,4.00
2023-04-02T22:18:49.869Z,4.97
2023-04-02T22:21:16.962Z,4.13
2023-04-02T22:23:44.096Z,4.90
2023-04-02T22:26:11.366Z,4.07
2023-04-02T22:28:38.380Z,4.27
2023-04-02T22:31:26.661Z,4.23
2023-04-02T22:33:53.828Z,4.30
2023-04-02T22:36:20.857Z,4.20
2023-04-02T22:38:47.825Z,4.50
2023-04-02T22:41:18.425Z,4.37
2023-04-02T22:43:45.728Z,4.53
2023-04-02T22:46:14.025Z,4.50
2023-04-02T22:48:41.125Z,5.73
2023-04-02T22:51:12.582Z,5.30
2023-04-02T22:53:39.629Z,5.47
2023-04-02T22:56:11.130Z,5.50
2023-04-02T22:58:38.199Z,4.90
2023-04-02T23:01:12.232Z,6.10
2023-04-02T23:03:39.178Z,5.30
2023-04-02T23:06:08.319Z,5.07
2023-04-02T23:08:36.248Z,4.90
2023-04-02T23:11:10.530Z,5.40
2023-04-02T23:13:37.901Z,6.40
2023-04-02T23:16:06.487Z,5.20
2023-04-02T23:18:38.210Z,5.33
2023-04-02T23:21:05.561Z,5.23
2023-04-02T23:23:32.626Z,4.87
2023-04-02T23:26:19.460Z,5.17
2023-04-02T23:28:46.313Z,5.30
2023-04-02T23:31:15.955Z,4.60
2023-04-02T23:33:43.154Z,4.60
2023-04-02T23:36:10.844Z,5.70
2023-04-02T23:38:37.690Z,4.97
2023-04-02T23:41:05.938Z,5.07
2023-04-02T23:43:32.821Z,5.40
2023-04-02T23:45:59.685Z,5.30
2023-04-02T23:48:26.537Z,5.57
2023-04-02T23:50:54.467Z,4.93
2023-04-02T23:53:21.475Z,4.63
2023-04-02T23:55:49.847Z,4.93
2023-04-02T23:58:16.665Z,5.80
